Time;durP1;ratioP1;P1;durP2;ratioP2;P2;SDS_P1;SDS_P2;PMS_P1;PMS_P2;Temp;Humidity;BMP_temperature;BMP_pressure;BME280_temperature;BME280_humidity;BME280_pressure;Samples;Min_cycle;Max_cycle;Signal;HPM_P1;HPM_P2
2022/04/23 00:01:35;;;;;;;1.52;1.20;;;19.70;46.30;;;;;;6146371;28;20054;-68
2022/04/23 00:04:37;;;;;;;1.92;1.15;;;19.70;46.40;;;;;;6162826;28;20026;-68
2022/04/23 00:07:37;;;;;;;1.50;1.10;;;19.70;46.30;;;;;;6148524;28;20042;-68
2022/04/23 00:10:38;;;;;;;1.73;1.27;;;19.70;46.30;;;;;;6147577;28;20095;-68
2022/04/23 00:13:38;;;;;;;1.27;1.17;;;19.70;46.30;;;;;;6147967;28;20035;-69
2022/04/23 00:16:39;;;;;;;1.20;1.10;;;19.70;46.30;;;;;;6148547;28;20026;-68
2022/04/23 00:19:40;;;;;;;1.90;1.20;;;19.70;46.30;;;;;;6148234;28;20064;-69
2022/04/23 00:22:41;;;;;;;1.52;1.10;;;19.70;46.40;;;;;;6147767;28;20031;-69
2022/04/23 00:25:45;;;;;;;1.17;1.00;;;19.70;46.50;;;;;;6148020;28;20039;-69
2022/04/23 00:28:45;;;;;;;1.52;1.08;;;19.70;46.50;;;;;;6147810;28;20035;-68
2022/04/23 00:31:46;;;;;;;1.13;1.00;;;19.70;46.30;;;;;;6147746;28;20062;-68
2022/04/23 00:34:46;;;;;;;1.60;1.10;;;19.70;46.50;;;;;;6166224;28;20031;-69
2022/04/23 00:37:47;;;;;;;1.30;1.10;;;19.70;46.40;;;;;;6171885;28;20023;-69
2022/04/23 00:40:48;;;;;;;2.80;1.13;;;19.70;46.60;;;;;;6171491;28;20050;-69
2022/04/23 00:43:48;;;;;;;1.10;1.00;;;19.70;46.60;;;;;;6159989;28;20027;-68
2022/04/23 00:46:49;;;;;;;1.17;1.08;;;19.70;46.50;;;;;;6123921;29;20102;-69
2022/04/23 00:49:50;;;;;;;1.55;0.95;;;19.70;46.40;;;;;;6123724;29;20043;-68
2022/04/23 00:53:01;;;;;;;1.05;0.90;;;19.70;46.40;;;;;;6123651;29;20038;-69
2022/04/23 00:56:01;;;;;;;1.40;1.10;;;19.70;46.50;;;;;;6123773;29;20115;-68
2022/04/23 00:59:06;;;;;;;1.55;1.10;;;19.70;46.40;;;;;;6123534;29;20074;-68
2022/04/23 01:02:07;;;;;;;;;;;19.70;46.50;;;;;;6143031;28;20062;-69
2022/04/23 01:05:09;;;;;;;1.45;1.10;;;19.70;46.50;;;;;;6170477;28;19914;-68
2022/04/23 01:08:10;;;;;;;1.20;1.10;;;19.70;46.60;;;;;;6170824;28;20027;-68
2022/04/23 01:11:10;;;;;;;1.67;1.20;;;19.80;46.70;;;;;;6170555;28;20034;-68
2022/04/23 01:14:11;;;;;;;1.38;1.13;;;19.70;46.40;;;;;;6169981;28;20162;-68
2022/04/23 01:17:11;;;;;;;1.35;0.95;;;19.70;46.40;;;;;;6170537;28;20030;-69
2022/04/23 01:20:14;;;;;;;1.10;0.85;;;19.70;46.60;;;;;;6170465;28;20093;-69
2022/04/23 01:23:14;;;;;;;1.40;1.10;;;19.70;46.50;;;;;;6173028;28;20111;-69
2022/04/23 01:26:30;;;;;;;1.05;0.95;;;19.70;46.50;;;;;;6176650;28;20508;-69
2022/04/23 01:29:31;;;;;;;1.30;1.00;;;19.70;46.50;;;;;;6169634;28;20035;-69
2022/04/23 01:32:31;;;;;;;0.73;0.70;;;19.70;46.60;;;;;;6155284;28;20019;-69
2022/04/23 01:35:32;;;;;;;1.73;1.15;;;19.70;46.50;;;;;;6175709;28;20097;-69
2022/04/23 01:38:32;;;;;;;1.55;1.17;;;19.70;46.40;;;;;;6175892;28;20139;-69
2022/04/23 01:41:33;;;;;;;0.80;0.70;;;19.70;46.60;;;;;;6175314;28;20040;-69
2022/04/23 01:44:34;;;;;;;1.10;1.00;;;19.70;46.50;;;;;;6163427;28;20067;-69
2022/04/23 01:47:34;;;;;;;1.40;1.23;;;19.70;46.50;;;;;;6151646;28;20038;-68
2022/04/23 01:50:35;;;;;;;1.80;1.10;;;19.70;46.50;;;;;;6151586;28;20047;-68
2022/04/23 01:53:35;;;;;;;1.50;0.93;;;19.70;46.60;;;;;;6151225;28;20023;-69
2022/04/23 01:56:36;;;;;;;1.30;0.98;;;19.70;46.60;;;;;;6151602;28;20028;-69
2022/04/23 01:59:36;;;;;;;1.20;1.02;;;19.70;46.70;;;;;;6151052;28;20102;-70
2022/04/23 02:02:37;;;;;;;1.27;1.15;;;19.70;46.70;;;;;;6151097;28;20166;-68
2022/04/23 02:05:37;;;;;;;1.88;1.00;;;19.70;46.80;;;;;;6151066;28;20166;-69
2022/04/23 02:08:38;;;;;;;1.13;1.02;;;19.70;46.70;;;;;;6151267;28;20058;-69
2022/04/23 02:11:39;;;;;;;1.33;1.00;;;19.70;46.50;;;;;;6150857;28;20781;-69
2022/04/23 02:14:39;;;;;;;1.05;0.90;;;19.70;46.70;;;;;;6150753;28;20429;-68
2022/04/23 02:17:41;;;;;;;1.25;0.90;;;19.70;46.70;;;;;;6150735;28;20031;-69
2022/04/23 02:20:42;;;;;;;1.48;1.10;;;19.70;46.60;;;;;;6150810;28;20139;-69
2022/04/23 02:23:43;;;;;;;1.17;0.90;;;19.70;46.70;;;;;;6150612;28;20499;-69
2022/04/23 02:26:44;;;;;;;2.03;1.20;;;19.70;46.80;;;;;;6150868;28;20032;-69
2022/04/23 02:29:44;;;;;;;1.25;1.10;;;19.70;46.50;;;;;;6150545;28;20034;-68
2022/04/23 02:32:46;;;;;;;1.27;1.10;;;19.70;46.80;;;;;;6150529;29;20024;-69
2022/04/23 02:35:47;;;;;;;0.95;0.90;;;19.70;46.80;;;;;;6149439;28;20131;-69
2022/04/23 02:38:51;;;;;;;1.13;1.00;;;19.70;46.80;;;;;;6149979;29;20512;-69
2022/04/23 02:41:51;;;;;;;1.10;0.80;;;19.70;46.70;;;;;;6149859;29;20067;-69
2022/04/23 02:44:52;;;;;;;1.45;1.00;;;19.70;46.80;;;;;;6135661;29;20023;-69
2022/04/23 02:47:57;;;;;;;1.50;1.00;;;19.70;46.80;;;;;;6126274;29;20099;-68
2022/04/23 02:50:57;;;;;;;;;;;19.70;46.90;;;;;;6126690;29;20039;-69
2022/04/23 02:53:58;;;;;;;1.17;1.05;;;19.70;46.80;;;;;;6124736;29;19913;-68
2022/04/23 02:57:00;;;;;;;1.17;1.08;;;19.70;46.80;;;;;;6126291;29;20077;-69
2022/04/23 03:00:00;;;;;;;1.77;1.20;;;19.70;46.90;;;;;;6126058;29;20058;-69
2022/04/23 03:03:01;;;;;;;1.20;1.00;;;19.70;46.80;;;;;;6126039;29;20510;-69
2022/04/23 03:06:02;;;;;;;1.08;0.98;;;19.70;46.80;;;;;;6125805;29;20628;-68
2022/04/23 03:09:03;;;;;;;1.17;1.00;;;19.70;46.80;;;;;;6126005;29;20031;-70
2022/04/23 03:12:04;;;;;;;1.38;1.05;;;19.70;46.80;;;;;;6132210;29;20028;-68
2022/04/23 03:15:06;;;;;;;1.35;1.00;;;19.70;46.80;;;;;;6149524;28;20057;-69
2022/04/23 03:18:10;;;;;;;1.30;1.00;;;19.70;46.80;;;;;;6149530;28;20441;-69
2022/04/23 03:21:11;;;;;;;1.63;0.98;;;19.70;46.80;;;;;;6149435;29;20437;-69
2022/04/23 03:24:11;;;;;;;1.88;1.30;;;19.70;46.80;;;;;;6149252;28;20027;-68
2022/04/23 03:27:12;;;;;;;1.10;1.00;;;19.70;46.80;;;;;;6149108;28;20027;-69
2022/04/23 03:30:12;;;;;;;1.05;0.93;;;19.70;46.80;;;;;;6148815;28;20039;-68
2022/04/23 03:33:13;;;;;;;0.80;0.80;;;19.70;46.80;;;;;;6147931;29;20035;-69
2022/04/23 03:36:14;;;;;;;2.25;1.10;;;19.70;46.80;;;;;;6148899;29;20023;-69
2022/04/23 03:39:15;;;;;;;1.17;0.75;;;19.70;46.80;;;;;;6148950;29;20050;-69
2022/04/23 03:42:15;;;;;;;1.25;1.00;;;19.70;46.80;;;;;;6147661;29;20037;-69
2022/04/23 03:45:19;;;;;;;1.33;1.02;;;19.70;46.90;;;;;;6131642;28;20039;-69
2022/04/23 03:48:20;;;;;;;1.58;1.15;;;19.70;46.80;;;;;;6125174;29;20368;-69
2022/04/23 03:51:20;;;;;;;1.25;1.10;;;19.70;46.80;;;;;;6124908;29;20039;-69
2022/04/23 03:54:21;;;;;;;1.17;0.85;;;19.70;46.80;;;;;;6124667;29;20102;-68
2022/04/23 03:57:21;;;;;;;1.40;1.17;;;19.70;46.90;;;;;;6124566;29;20108;-69
2022/04/23 04:00:22;;;;;;;1.45;0.88;;;19.70;46.80;;;;;;6124447;29;20062;-69
2022/04/23 04:03:23;;;;;;;1.40;1.10;;;19.70;46.90;;;;;;6124683;29;20032;-69
2022/04/23 04:06:24;;;;;;;1.15;0.95;;;19.70;46.80;;;;;;6125053;29;20059;-70
2022/04/23 04:09:24;;;;;;;1.55;1.00;;;19.70;46.80;;;;;;6124368;29;20032;-68
2022/04/23 04:12:25;;;;;;;1.33;1.13;;;19.70;46.90;;;;;;6124533;29;20466;-69
2022/04/23 04:15:25;;;;;;;1.05;0.90;;;19.70;46.80;;;;;;6124177;29;20091;-68
2022/04/23 04:18:26;;;;;;;1.42;1.05;;;19.70;46.90;;;;;;6124413;29;20020;-69
2022/04/23 04:21:27;;;;;;;1.17;1.00;;;19.70;46.90;;;;;;6123978;29;20106;-69
2022/04/23 04:24:28;;;;;;;1.27;0.98;;;19.70;46.90;;;;;;6124011;29;20563;-69
2022/04/23 04:27:29;;;;;;;1.85;1.20;;;19.70;46.80;;;;;;6123596;29;20023;-69
2022/04/23 04:31:46;;;;;;;1.17;0.98;;;19.70;46.90;;;;;;6148309;28;20066;-69
2022/04/23 04:33:50;;;;;;;1.10;0.98;;;19.70;46.90;;;;;;6171678;28;20027;-69
2022/04/23 04:36:59;;;;;;;1.73;1.05;;;19.70;46.90;;;;;;6171677;28;20033;-69
2022/04/23 04:40:00;;;;;;;1.27;1.10;;;19.70;46.90;;;;;;6171872;28;20134;-69
2022/04/23 04:43:01;;;;;;;1.48;1.20;;;19.70;46.90;;;;;;6171864;28;20030;-69
2022/04/23 04:46:03;;;;;;;1.00;0.90;;;19.70;46.80;;;;;;6124038;28;20028;-69
2022/04/23 04:49:04;;;;;;;1.50;0.93;;;19.70;46.90;;;;;;6123716;29;20055;-69
2022/04/23 04:52:05;;;;;;;1.08;0.98;;;19.70;47.00;;;;;;6124002;29;20036;-69
2022/04/23 04:55:06;;;;;;;1.27;1.08;;;19.70;47.00;;;;;;6123740;29;20028;-69
2022/04/23 04:58:06;;;;;;;1.30;1.02;;;19.70;47.00;;;;;;6127997;29;20024;-69
2022/04/23 05:01:07;;;;;;;0.82;0.82;;;19.70;46.90;;;;;;6117898;28;20399;-68
2022/04/23 05:04:07;;;;;;;1.70;1.23;;;19.70;46.90;;;;;;6131772;29;20028;-69
2022/04/23 05:07:08;;;;;;;1.20;1.00;;;19.70;47.00;;;;;;6131458;29;20028;-68
2022/04/23 05:10:09;;;;;;;1.30;1.00;;;19.70;47.00;;;;;;6132343;28;20593;-69
2022/04/23 05:13:09;;;;;;;1.10;1.00;;;19.70;46.90;;;;;;6155397;28;20078;-69
2022/04/23 05:16:10;;;;;;;1.00;0.90;;;19.70;47.00;;;;;;6155756;28;20027;-69
2022/04/23 05:19:11;;;;;;;1.27;1.00;;;19.70;47.00;;;;;;6155297;28;20019;-69
2022/04/23 05:22:12;;;;;;;1.40;1.00;;;19.70;47.10;;;;;;6155274;28;20108;-69
2022/04/23 05:25:12;;;;;;;1.05;0.90;;;19.70;47.00;;;;;;6155127;28;20618;-69
2022/04/23 05:28:13;;;;;;;1.10;0.88;;;19.70;47.00;;;;;;6155064;28;20748;-69
2022/04/23 05:31:13;;;;;;;1.40;0.95;;;19.70;47.00;;;;;;6155033;28;20167;-69
2022/04/23 05:34:14;;;;;;;1.27;1.00;;;19.70;47.00;;;;;;6155300;28;20027;-69
2022/04/23 05:37:14;;;;;;;1.45;1.20;;;19.70;47.10;;;;;;6155262;28;20042;-69
2022/04/23 05:40:15;;;;;;;1.33;1.02;;;19.70;47.00;;;;;;6155173;28;20035;-69
2022/04/23 05:43:16;;;;;;;1.33;1.23;;;19.70;47.10;;;;;;6155041;28;20151;-69
2022/04/23 05:46:17;;;;;;;1.27;1.00;;;19.70;47.10;;;;;;6155182;28;20062;-68
2022/04/23 05:49:17;;;;;;;1.02;0.93;;;19.70;47.10;;;;;;6154787;28;20031;-69
2022/04/23 05:52:18;;;;;;;1.05;0.93;;;19.70;47.00;;;;;;6155000;28;20023;-69
2022/04/23 05:55:18;;;;;;;1.20;1.10;;;19.70;47.10;;;;;;6154731;28;20505;-69
2022/04/23 05:58:19;;;;;;;1.13;1.02;;;19.70;47.10;;;;;;6155180;28;20034;-68
2022/04/23 06:01:19;;;;;;;1.25;1.05;;;19.70;47.10;;;;;;6154137;28;20058;-69
2022/04/23 06:04:20;;;;;;;1.40;1.17;;;19.70;47.10;;;;;;6154928;28;20042;-69
2022/04/23 06:07:20;;;;;;;0.93;0.80;;;19.70;47.10;;;;;;6154446;28;20528;-69
2022/04/23 06:10:21;;;;;;;1.50;1.10;;;19.70;47.10;;;;;;6151656;28;20035;-69
2022/04/23 06:13:21;;;;;;;1.42;1.13;;;19.70;47.10;;;;;;6151195;28;20019;-69
2022/04/23 06:16:22;;;;;;;1.40;1.20;;;19.70;47.10;;;;;;6150152;28;20034;-68
2022/04/23 06:19:22;;;;;;;1.23;0.85;;;19.70;47.10;;;;;;6149734;28;20102;-69
2022/04/23 06:22:23;;;;;;;1.13;1.00;;;19.70;47.10;;;;;;6151163;28;20024;-69
2022/04/23 06:25:24;;;;;;;1.05;0.93;;;19.70;47.10;;;;;;6150552;29;20062;-69
2022/04/23 06:28:24;;;;;;;2.28;1.02;;;19.70;47.10;;;;;;6152933;28;20026;-68
2022/04/23 06:31:25;;;;;;;1.33;1.17;;;19.70;47.10;;;;;;6150173;28;20039;-68
2022/04/23 06:34:25;;;;;;;1.40;1.08;;;19.70;47.20;;;;;;6150447;28;20031;-69
2022/04/23 06:37:26;;;;;;;1.52;1.30;;;19.70;47.20;;;;;;6152657;28;20023;-69
2022/04/23 06:40:26;;;;;;;1.83;0.98;;;19.70;47.10;;;;;;6150409;28;20111;-68
2022/04/23 06:43:27;;;;;;;0.98;0.90;;;19.70;47.20;;;;;;6150485;28;20501;-69
2022/04/23 06:46:27;;;;;;;1.00;0.90;;;19.70;47.20;;;;;;6150306;28;20114;-69
2022/04/23 06:49:28;;;;;;;1.00;0.75;;;19.70;47.20;;;;;;6149974;28;20043;-68
2022/04/23 06:52:29;;;;;;;1.45;0.85;;;19.70;47.20;;;;;;6150089;28;20023;-68
2022/04/23 06:55:30;;;;;;;1.33;0.93;;;19.70;47.20;;;;;;6144252;28;20166;-69
2022/04/23 06:58:30;;;;;;;1.48;0.88;;;19.70;47.20;;;;;;6150033;28;20166;-68
2022/04/23 07:01:31;;;;;;;1.40;1.00;;;19.70;47.20;;;;;;6148377;28;20043;-69
2022/04/23 07:04:32;;;;;;;0.77;0.77;;;19.70;47.20;;;;;;6149648;28;20031;-69
2022/04/23 07:07:33;;;;;;;1.00;0.90;;;19.70;47.30;;;;;;6149818;28;20035;-69
2022/04/23 07:10:34;;;;;;;1.67;1.23;;;19.70;47.20;;;;;;6149751;28;20039;-69
2022/04/23 07:13:36;;;;;;;2.03;1.00;;;19.70;47.20;;;;;;6149418;28;20027;-69
2022/04/23 07:16:36;;;;;;;1.48;1.08;;;19.70;47.20;;;;;;6149270;28;20023;-69
2022/04/23 07:19:40;;;;;;;1.23;1.08;;;19.70;47.20;;;;;;6149112;28;20031;-68
2022/04/23 07:24:02;;;;;;;1.20;1.00;;;19.70;47.20;;;;;;6148874;28;20058;-69
2022/04/23 07:26:02;;;;;;;1.38;1.10;;;19.70;47.20;;;;;;6149124;28;20023;-68
2022/04/23 07:29:05;;;;;;;1.10;0.90;;;19.70;47.20;;;;;;6149111;28;20394;-68
2022/04/23 07:32:06;;;;;;;1.10;1.00;;;19.70;47.20;;;;;;6149275;29;20023;-69
2022/04/23 07:38:26;;;;;;;1.67;1.15;;;19.70;47.20;;;;;;6148975;28;20039;-69
2022/04/23 07:41:27;;;;;;;1.08;0.98;;;19.70;47.30;;;;;;6149272;28;20391;-69
2022/04/23 07:44:28;;;;;;;1.10;0.80;;;19.70;47.20;;;;;;6137620;29;20151;-69
2022/04/23 07:47:28;;;;;;;1.33;1.00;;;19.70;47.30;;;;;;6123279;29;20035;-69
2022/04/23 07:50:29;;;;;;;1.85;0.93;;;19.70;47.30;;;;;;6125180;29;20073;-69
2022/04/23 07:53:29;;;;;;;1.35;1.00;;;19.70;47.30;;;;;;6124890;29;20462;-70
2022/04/23 07:56:30;;;;;;;0.88;0.80;;;19.70;47.30;;;;;;6124585;29;20032;-69
2022/04/23 07:59:31;;;;;;;1.05;0.90;;;19.70;47.30;;;;;;6124795;29;20167;-69
2022/04/23 08:02:31;;;;;;;1.23;1.00;;;19.70;47.30;;;;;;6124236;29;20446;-69
2022/04/23 08:05:32;;;;;;;1.10;0.80;;;19.70;47.30;;;;;;6124713;29;20114;-69
2022/04/23 08:08:33;;;;;;;0.63;0.60;;;19.70;47.30;;;;;;6134613;28;20070;-68
2022/04/23 08:11:34;;;;;;;1.25;0.95;;;19.70;47.40;;;;;;6148153;28;20039;-69
2022/04/23 08:14:35;;;;;;;0.90;0.80;;;19.70;47.30;;;;;;6147985;28;20019;-68
2022/04/23 08:17:35;;;;;;;1.00;0.90;;;19.70;47.40;;;;;;6148128;28;20113;-69
2022/04/23 08:20:37;;;;;;;3.33;1.10;;;19.70;47.30;;;;;;6148033;28;20035;-68
2022/04/23 08:23:37;;;;;;;1.08;0.80;;;19.70;47.30;;;;;;6148170;28;20513;-69
2022/04/23 08:26:38;;;;;;;1.52;1.10;;;19.70;47.30;;;;;;6147874;28;20035;-69
2022/04/23 08:32:57;;;;;;;1.52;0.88;;;19.70;48.00;;;;;;6147038;28;20031;-69
2022/04/23 08:35:58;;;;;;;1.10;0.90;;;19.70;47.30;;;;;;6147879;29;20035;-69
2022/04/23 08:38:59;;;;;;;1.15;0.93;;;19.70;47.30;;;;;;6148062;28;20076;-69
2022/04/23 08:42:03;;;;;;;1.38;0.98;;;19.70;47.30;;;;;;6147874;29;20023;-68
2022/04/23 08:45:07;;;;;;;1.27;1.15;;;19.70;47.30;;;;;;6147715;28;20506;-69
2022/04/23 08:48:09;;;;;;;1.27;1.05;;;19.70;47.20;;;;;;6147666;28;20027;-68
2022/04/23 08:51:15;;;;;;;1.30;1.00;;;19.70;47.20;;;;;;6147833;28;20031;-68
2022/04/23 08:54:16;;;;;;;1.13;1.00;;;19.70;47.30;;;;;;6147410;28;20038;-68
2022/04/23 08:57:16;;;;;;;1.13;0.93;;;19.70;47.20;;;;;;6147627;28;20023;-70
2022/04/23 09:00:17;;;;;;;1.08;0.90;;;19.70;47.20;;;;;;6147390;29;20102;-69
2022/04/23 09:03:18;;;;;;;1.15;0.88;;;19.70;47.20;;;;;;6147259;28;20051;-69
2022/04/23 09:06:19;;;;;;;1.27;0.95;;;19.70;47.20;;;;;;6147441;28;20553;-70
2022/04/23 09:09:21;;;;;;;1.30;0.80;;;19.70;47.20;;;;;;6147229;28;20545;-68
2022/04/23 09:12:26;;;;;;;1.20;1.00;;;19.70;47.20;;;;;;6147466;28;20039;-68
2022/04/23 09:25:45;;;;;;;1.30;1.02;;;19.70;47.20;;;;;;6147419;28;20039;-69
2022/04/23 09:28:47;;;;;;;1.15;1.00;;;19.70;47.20;;;;;;6147236;28;20490;-69
2022/04/23 09:31:47;;;;;;;1.25;0.90;;;19.70;47.20;;;;;;6140536;28;20035;-68
2022/04/23 09:35:10;;;;;;;1.75;1.17;;;19.70;47.30;;;;;;6129658;28;20505;-69
2022/04/23 09:38:18;;;;;;;0.90;0.80;;;19.70;47.20;;;;;;6128162;28;20027;-69
2022/04/23 09:41:31;;;;;;;3.95;1.40;;;19.70;47.50;;;;;;6147244;28;20030;-68
2022/04/23 09:44:32;;;;;;;2.53;1.40;;;19.70;46.90;;;;;;6149130;28;20027;-69
2022/04/23 09:47:34;;;;;;;1.38;1.10;;;19.70;46.80;;;;;;6151796;28;20371;-68
2022/04/23 09:50:39;;;;;;;1.80;1.30;;;19.70;46.90;;;;;;6150507;28;20604;-68
2022/04/23 09:53:40;;;;;;;1.92;1.38;;;19.70;46.80;;;;;;6150601;28;20755;-69
2022/04/23 09:56:41;;;;;;;1.88;1.30;;;19.70;46.80;;;;;;6151243;28;20043;-68
2022/04/23 09:59:42;;;;;;;7.95;2.10;;;19.70;46.80;;;;;;6151214;28;20478;-68
2022/04/23 10:02:44;;;;;;;2.97;1.63;;;19.70;46.90;;;;;;6150960;28;20043;-68
2022/04/23 10:05:47;;;;;;;5.32;1.25;;;19.70;46.80;;;;;;6150930;28;20532;-69
2022/04/23 10:08:51;;;;;;;1.73;1.58;;;19.70;46.90;;;;;;6150979;28;20031;-69
2022/04/23 10:12:00;;;;;;;2.95;1.60;;;19.70;46.90;;;;;;6151048;28;20063;-69
2022/04/23 10:15:01;;;;;;;2.65;1.58;;;19.70;46.90;;;;;;6150991;28;20027;-68
2022/04/23 10:18:02;;;;;;;1.98;1.30;;;19.70;46.90;;;;;;6150681;28;20521;-69
2022/04/23 10:21:08;;;;;;;2.30;1.70;;;19.70;46.90;;;;;;6151073;28;20019;-69
2022/04/23 10:24:18;;;;;;;2.20;1.60;;;19.70;46.90;;;;;;6150351;28;20023;-68
2022/04/23 10:27:18;;;;;;;5.00;1.35;;;19.70;47.00;;;;;;6150640;28;20024;-69
2022/04/23 10:30:19;;;;;;;1.52;1.27;;;19.70;47.00;;;;;;6150406;28;20031;-68
2022/04/23 10:33:26;;;;;;;2.00;1.50;;;19.70;46.90;;;;;;6150101;28;20117;-69
2022/04/23 10:36:27;;;;;;;1.98;1.50;;;19.70;46.90;;;;;;6149848;28;20024;-68
2022/04/23 10:39:29;;;;;;;2.67;1.70;;;19.70;46.90;;;;;;6150141;28;20031;-68
2022/04/23 10:42:31;;;;;;;1.80;1.38;;;19.70;47.00;;;;;;6150298;28;20031;-68
2022/04/23 10:45:33;;;;;;;1.60;1.45;;;19.70;46.90;;;;;;6130469;28;20695;-68
2022/04/23 10:48:44;;;;;;;3.03;1.80;;;19.70;47.00;;;;;;6126359;29;20031;-68
2022/04/23 10:51:55;;;;;;;1.90;1.40;;;19.70;46.90;;;;;;6126280;29;20051;-69
2022/04/23 10:54:56;;;;;;;1.75;1.30;;;19.70;46.90;;;;;;6124095;29;20019;-68
2022/04/23 10:58:21;;;;;;;1.85;1.48;;;19.70;47.00;;;;;;6126277;29;20063;-68
2022/04/23 11:01:23;;;;;;;1.50;1.40;;;19.70;46.90;;;;;;6124201;29;20495;-68
2022/04/23 11:04:23;;;;;;;1.58;1.27;;;19.70;47.10;;;;;;6125445;29;20036;-68
2022/04/23 11:14:39;;;;;;;2.22;1.40;;;19.70;47.00;;;;;;6124078;29;20055;-68
2022/04/23 11:17:44;;;;;;;2.08;1.38;;;19.70;47.00;;;;;;6124232;29;20091;-68
2022/04/23 11:20:44;;;;;;;1.52;1.40;;;19.70;47.00;;;;;;6124108;29;20423;-68
2022/04/23 11:23:45;;;;;;;1.92;1.70;;;19.70;47.00;;;;;;6124574;29;20079;-69
2022/04/23 11:26:47;;;;;;;1.73;1.35;;;19.70;47.00;;;;;;6123649;29;20020;-68
2022/04/23 11:29:51;;;;;;;2.83;1.50;;;19.70;47.00;;;;;;6130732;28;20035;-68
2022/04/23 11:32:52;;;;;;;1.63;1.30;;;19.70;47.10;;;;;;6147777;29;20022;-69
2022/04/23 11:35:57;;;;;;;1.77;1.40;;;19.70;47.00;;;;;;6147470;29;20486;-68
2022/04/23 11:39:04;;;;;;;1.65;1.50;;;19.70;47.00;;;;;;6146174;29;20055;-68
2022/04/23 11:42:06;;;;;;;1.60;1.42;;;19.70;47.00;;;;;;6147246;29;20031;-68
2022/04/23 11:45:08;;;;;;;1.60;1.20;;;19.70;47.00;;;;;;6130819;29;20422;-68
2022/04/23 11:48:10;;;;;;;1.30;1.20;;;19.70;47.10;;;;;;6138806;28;20027;-68
2022/04/23 11:51:12;;;;;;;1.55;1.30;;;19.70;47.00;;;;;;6147264;28;20054;-69
2022/04/23 11:54:12;;;;;;;2.28;1.65;;;19.70;47.00;;;;;;6162007;28;20110;-69
2022/04/23 11:57:16;;;;;;;1.30;1.20;;;19.70;47.10;;;;;;6146806;28;20027;-68
2022/04/23 12:00:19;;;;;;;1.67;1.45;;;19.70;47.10;;;;;;6146771;28;20437;-68
2022/04/23 12:03:25;;;;;;;1.10;1.00;;;19.70;47.00;;;;;;6146971;28;20063;-68
2022/04/23 12:06:27;;;;;;;1.20;1.05;;;19.70;47.10;;;;;;6148912;28;20370;-68
2022/04/23 12:09:27;;;;;;;1.60;1.20;;;19.70;47.20;;;;;;6147146;28;20027;-68
2022/04/23 12:12:32;;;;;;;1.85;1.45;;;19.70;47.40;;;;;;6146771;28;20027;-68
2022/04/23 12:15:33;;;;;;;;;;;19.70;47.00;;;;;;6146869;28;20477;-69
2022/04/23 12:18:33;;;;;;;1.40;1.25;;;19.70;47.10;;;;;;6146939;28;19969;-69
2022/04/23 12:21:35;;;;;;;1.30;1.17;;;19.70;47.10;;;;;;6146703;28;20036;-68
2022/04/23 12:24:36;;;;;;;1.90;1.40;;;19.70;47.10;;;;;;6146474;28;20430;-68
2022/04/23 12:41:25;;;;;;;1.45;1.20;;;19.70;47.10;;;;;;6146047;29;20498;-69
2022/04/23 12:44:40;;;;;;;1.15;1.00;;;19.70;47.20;;;;;;6135206;29;20163;-68
2022/04/23 12:47:42;;;;;;;1.30;1.00;;;19.70;47.20;;;;;;6122468;29;20036;-68
2022/04/23 12:50:44;;;;;;;1.90;1.20;;;19.70;47.20;;;;;;6122612;29;20032;-68
2022/04/23 12:53:45;;;;;;;1.30;1.08;;;19.70;47.20;;;;;;6122677;29;20031;-68
2022/04/23 12:56:46;;;;;;;2.53;1.27;;;19.70;47.20;;;;;;6122248;29;20084;-68
2022/04/23 12:59:46;;;;;;;1.90;1.30;;;19.70;47.20;;;;;;6122234;29;20036;-68
2022/04/23 13:02:51;;;;;;;1.10;1.00;;;19.70;47.30;;;;;;6122207;29;20102;-68
2022/04/23 13:05:52;;;;;;;;;;;19.70;47.30;;;;;;6122368;29;20048;-68
2022/04/23 13:08:56;;;;;;;1.20;1.10;;;19.70;47.20;;;;;;6122271;29;19914;-68
2022/04/23 13:11:56;;;;;;;1.38;1.20;;;19.70;47.20;;;;;;6121741;29;20063;-68
2022/04/23 13:14:57;;;;;;;1.30;0.98;;;19.70;47.20;;;;;;6122195;29;20036;-68
2022/04/23 13:17:57;;;;;;;1.45;1.10;;;19.70;47.30;;;;;;6122284;29;20044;-69
2022/04/23 13:20:58;;;;;;;1.48;1.30;;;19.70;47.20;;;;;;6126937;29;20031;-68
2022/04/23 13:23:59;;;;;;;1.88;1.40;;;19.70;47.30;;;;;;6126565;29;20087;-69
2022/04/23 13:27:01;;;;;;;1.63;1.20;;;19.70;47.20;;;;;;6126820;29;20078;-68
2022/04/23 13:30:01;;;;;;;1.55;1.10;;;19.70;47.30;;;;;;6142847;28;20493;-68
2022/04/23 13:33:02;;;;;;;1.10;1.00;;;19.70;47.20;;;;;;6174402;28;20034;-68
2022/04/23 13:36:03;;;;;;;1.35;1.05;;;19.70;47.30;;;;;;6174866;28;20027;-68
2022/04/23 13:39:04;;;;;;;1.40;1.10;;;19.70;47.30;;;;;;6174263;28;20722;-68
2022/04/23 13:42:05;;;;;;;1.05;0.90;;;19.70;47.30;;;;;;6173934;28;20324;-68
2022/04/23 13:45:07;;;;;;;4.28;1.00;;;19.70;47.30;;;;;;6141686;28;20067;-69
2022/04/23 13:48:09;;;;;;;1.40;1.10;;;19.70;47.30;;;;;;6126458;29;20031;-68
2022/04/23 13:51:09;;;;;;;1.40;1.20;;;19.70;47.30;;;;;;6126183;29;20075;-68
2022/04/23 13:54:10;;;;;;;1.13;1.00;;;19.70;47.30;;;;;;6126041;29;20026;-69
2022/04/23 13:57:10;;;;;;;1.45;1.02;;;19.70;47.30;;;;;;6126016;29;20076;-69
2022/04/23 14:00:11;;;;;;;1.77;1.23;;;19.70;47.30;;;;;;6125954;29;20038;-68
2022/04/23 14:10:05;;;;;;;0.93;0.85;;;19.70;47.30;;;;;;6125864;29;20043;-68
2022/04/23 14:13:06;;;;;;;1.10;0.80;;;19.70;47.30;;;;;;6125781;29;20086;-69
2022/04/23 14:16:06;;;;;;;1.10;1.00;;;19.70;47.30;;;;;;6125524;29;20031;-68
2022/04/23 14:19:07;;;;;;;1.30;0.90;;;19.70;47.30;;;;;;6142380;28;20086;-69
2022/04/23 14:22:07;;;;;;;1.20;1.10;;;19.70;47.40;;;;;;6149575;28;20038;-68
2022/04/23 14:25:08;;;;;;;1.15;1.00;;;19.70;47.40;;;;;;6149065;28;20034;-69
2022/04/23 14:28:08;;;;;;;0.88;0.80;;;19.70;47.40;;;;;;6149144;28;20075;-68
2022/04/23 14:31:09;;;;;;;1.30;1.00;;;19.70;47.40;;;;;;6147428;28;20122;-68
2022/04/23 14:34:09;;;;;;;1.10;1.00;;;19.70;47.40;;;;;;6148913;29;20079;-68
2022/04/23 14:37:10;;;;;;;1.63;1.10;;;19.70;47.40;;;;;;6148928;29;20035;-68
2022/04/23 14:40:11;;;;;;;1.30;1.08;;;19.70;47.40;;;;;;6148983;29;20110;-68
2022/04/23 14:43:12;;;;;;;1.40;1.02;;;19.70;48.10;;;;;;6147793;29;20146;-68
2022/04/23 14:46:12;;;;;;;1.20;1.00;;;19.70;47.40;;;;;;6125153;29;20028;-68
2022/04/23 14:49:13;;;;;;;1.48;1.20;;;19.70;47.50;;;;;;6124709;29;20031;-68
2022/04/23 14:55:33;;;;;;;1.10;1.00;;;19.70;47.50;;;;;;6124510;29;20391;-68
2022/04/23 14:58:33;;;;;;;1.13;0.90;;;19.70;47.50;;;;;;6124746;29;20034;-68
2022/04/23 15:01:34;;;;;;;1.10;0.98;;;19.70;47.40;;;;;;6124176;29;20072;-68
2022/04/23 15:04:34;;;;;;;0.93;0.80;;;19.70;47.50;;;;;;6124195;29;20039;-68
2022/04/23 15:07:35;;;;;;;1.00;0.90;;;19.70;47.50;;;;;;6124311;29;20027;-68
2022/04/23 15:10:36;;;;;;;1.27;1.00;;;19.70;47.50;;;;;;6124664;29;20175;-68
2022/04/23 15:13:37;;;;;;;1.10;0.98;;;19.70;47.40;;;;;;6124256;29;20463;-68
2022/04/23 15:16:38;;;;;;;1.10;1.00;;;19.70;47.50;;;;;;6123924;29;20031;-68
2022/04/23 15:19:38;;;;;;;1.15;0.82;;;19.70;47.50;;;;;;6124395;29;20469;-68
2022/04/23 15:22:39;;;;;;;1.45;0.90;;;19.70;47.50;;;;;;6124419;29;20517;-68
2022/04/23 15:25:41;;;;;;;1.25;0.90;;;19.70;47.50;;;;;;6123803;28;20032;-68
2022/04/23 15:28:41;;;;;;;0.90;0.90;;;19.70;47.50;;;;;;6148118;28;20027;-68
2022/04/23 15:31:42;;;;;;;1.20;1.10;;;19.70;47.50;;;;;;6148409;28;20405;-68
2022/04/23 15:34:44;;;;;;;1.05;0.95;;;19.70;47.50;;;;;;6147505;28;20019;-69
2022/04/23 15:37:45;;;;;;;1.02;0.93;;;19.70;47.50;;;;;;6147418;28;20034;-68
2022/04/23 15:40:45;;;;;;;1.10;1.00;;;19.70;47.50;;;;;;6147186;28;20467;-68
2022/04/23 15:43:46;;;;;;;1.70;1.10;;;19.70;47.50;;;;;;6141433;28;20450;-69
2022/04/23 15:46:46;;;;;;;0.88;0.82;;;19.70;47.50;;;;;;6123571;29;20059;-68
2022/04/23 15:49:47;;;;;;;1.85;1.10;;;19.70;47.50;;;;;;6123424;29;20044;-68
2022/04/23 15:52:47;;;;;;;1.27;1.05;;;19.70;47.50;;;;;;6123768;28;20028;-68
2022/04/23 15:55:48;;;;;;;0.90;0.90;;;19.70;47.50;;;;;;6123333;29;20050;-68
2022/04/23 15:58:48;;;;;;;1.20;1.00;;;19.70;47.50;;;;;;6123350;29;20035;-68
2022/04/23 16:01:49;;;;;;;1.25;1.10;;;19.70;47.60;;;;;;6119646;28;20126;-68
2022/04/23 16:04:50;;;;;;;1.25;0.98;;;19.70;47.60;;;;;;6141559;28;20031;-69
2022/04/23 16:07:50;;;;;;;1.20;0.82;;;19.70;47.50;;;;;;6149923;28;20063;-69
2022/04/23 16:10:53;;;;;;;0.80;0.80;;;19.70;47.60;;;;;;6168484;28;20217;-68
2022/04/23 16:13:54;;;;;;;1.23;1.00;;;19.70;47.60;;;;;;6154080;28;20390;-68
2022/04/23 16:16:54;;;;;;;0.80;0.80;;;19.70;47.60;;;;;;6120937;29;20034;-68
2022/04/23 16:19:55;;;;;;;1.23;0.80;;;19.70;47.60;;;;;;6137736;28;20027;-68
2022/04/23 16:22:55;;;;;;;1.25;1.08;;;19.70;47.60;;;;;;6169025;28;20055;-68
2022/04/23 16:25:56;;;;;;;1.02;0.90;;;19.70;47.60;;;;;;6147216;28;20685;-69
2022/04/23 16:28:56;;;;;;;0.98;0.75;;;19.70;47.50;;;;;;6144979;28;20050;-68
2022/04/23 16:31:57;;;;;;;1.27;1.17;;;19.70;47.50;;;;;;6145216;28;20035;-69
2022/04/23 16:34:58;;;;;;;1.10;1.00;;;19.70;47.50;;;;;;6167096;28;20618;-68